createdAt,value
2018-12-17T00:00:52.659Z,88.60
2018-12-17T00:03:25.003Z,88.90
2018-12-17T00:05:57.240Z,89.20
2018-12-17T00:08:31.963Z,88.90
2018-12-17T00:11:03.420Z,89.00
2018-12-17T00:13:35.240Z,89.20
2018-12-17T00:16:06.800Z,89.30
2018-12-17T00:18:38.500Z,89.30
2018-12-17T00:21:10.740Z,89.40
2018-12-17T00:23:42.420Z,89.50
2018-12-17T00:26:14.120Z,89.50
2018-12-17T00:28:46.603Z,89.50
2018-12-17T00:31:18.385Z,89.30
2018-12-17T00:33:50.700Z,89.10
2018-12-17T00:36:22.568Z,89.20
2018-12-17T00:38:54.400Z,89.30
2018-12-17T00:41:25.761Z,89.50
2018-12-17T00:43:57.961Z,89.60
2018-12-17T00:46:29.701Z,89.80
2018-12-17T00:49:02.240Z,89.90
2018-12-17T00:51:35.022Z,90.00
2018-12-17T00:54:06.601Z,90.10
2018-12-17T00:56:39.101Z,90.00
2018-12-17T00:59:10.681Z,90.10
2018-12-17T01:01:42.774Z,90.00
2018-12-17T01:04:14.401Z,90.00
2018-12-17T01:06:46.701Z,89.70
2018-12-17T01:09:18.580Z,90.10
2018-12-17T01:11:50.742Z,89.50
2018-12-17T01:14:23.241Z,89.50
2018-12-17T01:16:55.143Z,89.20
2018-12-17T01:19:27.981Z,89.00
2018-12-17T01:22:00.201Z,89.10
2018-12-17T01:24:31.840Z,89.30
2018-12-17T01:27:04.123Z,88.60
2018-12-17T01:29:36.060Z,89.30
2018-12-17T01:32:08.741Z,89.50
2018-12-17T01:34:40.301Z,89.40
2018-12-17T01:37:12.181Z,89.60
2018-12-17T01:39:43.661Z,89.60
2018-12-17T01:42:15.419Z,89.50
2018-12-17T01:44:47.400Z,89.50
2018-12-17T01:47:19.381Z,90.00
2018-12-17T01:49:51.100Z,89.50
2018-12-17T01:52:22.260Z,89.50
2018-12-17T01:54:53.960Z,89.90
2018-12-17T01:57:26.883Z,89.70
2018-12-17T01:59:58.920Z,89.80
2018-12-17T02:02:31.399Z,89.80
2018-12-17T02:05:03.503Z,90.00
2018-12-17T02:07:35.305Z,89.80
2018-12-17T02:10:07.381Z,89.30
2018-12-17T02:12:39.060Z,89.30
2018-12-17T02:15:11.307Z,89.00
2018-12-17T02:17:44.061Z,89.10
2018-12-17T02:20:16.101Z,89.10
2018-12-17T02:22:49.061Z,88.70
2018-12-17T02:25:20.242Z,88.60
2018-12-17T02:27:52.841Z,88.50
2018-12-17T02:30:24.781Z,88.30
2018-12-17T02:32:56.940Z,88.50
2018-12-17T02:35:28.600Z,88.60
2018-12-17T02:38:01.244Z,88.50
2018-12-17T02:40:32.660Z,87.80
2018-12-17T02:43:04.660Z,87.00
2018-12-17T02:45:36.940Z,87.80
2018-12-17T02:48:08.700Z,87.30
2018-12-17T02:50:41.060Z,87.30
2018-12-17T02:53:13.523Z,87.20
2018-12-17T02:55:45.100Z,87.10
2018-12-17T02:58:17.740Z,87.00
2018-12-17T03:00:49.247Z,86.80
2018-12-17T03:03:21.739Z,86.60
2018-12-17T03:05:53.322Z,86.60
2018-12-17T03:08:25.780Z,86.80
2018-12-17T03:10:57.480Z,86.50
2018-12-17T03:13:32.160Z,86.40
2018-12-17T03:16:03.880Z,86.70
2018-12-17T03:18:36.360Z,87.20
2018-12-17T03:21:08.780Z,87.50
2018-12-17T03:23:40.500Z,87.60
2018-12-17T03:26:13.301Z,87.70
2018-12-17T03:28:51.612Z,87.80
2018-12-17T03:31:20.262Z,88.00
2018-12-17T03:33:51.980Z,88.00
2018-12-17T03:36:23.800Z,88.00
2018-12-17T03:38:55.341Z,88.10
2018-12-17T03:41:27.881Z,88.30
2018-12-17T03:43:59.569Z,88.50
2018-12-17T03:46:32.240Z,88.60
2018-12-17T03:49:03.661Z,88.60
2018-12-17T03:51:35.967Z,88.50
2018-12-17T03:54:08.200Z,88.70
2018-12-17T03:56:40.620Z,88.60
2018-12-17T03:59:12.840Z,88.60
2018-12-17T04:01:44.640Z,88.50
2018-12-17T04:04:16.282Z,88.10
2018-12-17T04:06:48.640Z,88.20
2018-12-17T04:09:21.366Z,88.00
2018-12-17T04:11:53.261Z,87.80
2018-12-17T04:14:25.082Z,87.80
2018-12-17T04:16:57.040Z,87.80
2018-12-17T04:19:29.021Z,87.60
2018-12-17T04:22:00.920Z,88.00
2018-12-17T04:24:33.381Z,88.00
2018-12-17T04:27:04.743Z,87.90
2018-12-17T04:29:36.221Z,87.60
2018-12-17T04:32:07.342Z,87.70
2018-12-17T04:34:39.124Z,87.70
2018-12-17T04:37:11.395Z,87.90
2018-12-17T04:39:43.880Z,87.90
2018-12-17T04:42:15.401Z,88.00
2018-12-17T04:44:49.160Z,88.30
2018-12-17T04:47:21.163Z,88.10
2018-12-17T04:49:52.940Z,88.30
2018-12-17T04:52:24.421Z,87.90
2018-12-17T04:54:54.540Z,88.00
2018-12-17T04:57:26.319Z,87.90
2018-12-17T04:59:57.800Z,87.40
2018-12-17T05:02:29.820Z,87.50
2018-12-17T05:05:02.541Z,87.20
2018-12-17T05:07:34.443Z,87.00
2018-12-17T05:10:06.344Z,87.20
2018-12-17T05:12:38.465Z,87.30
2018-12-17T05:15:10.861Z,87.50
2018-12-17T05:17:43.500Z,87.50
2018-12-17T05:20:15.040Z,87.10
2018-12-17T05:22:47.686Z,87.20
2018-12-17T05:25:19.318Z,86.90
2018-12-17T05:27:51.560Z,86.90
2018-12-17T05:30:23.603Z,87.00
2018-12-17T05:32:55.540Z,87.70
2018-12-17T05:35:27.304Z,87.40
2018-12-17T05:37:59.401Z,87.50
2018-12-17T05:40:31.882Z,87.30
2018-12-17T05:43:03.640Z,87.30
2018-12-17T05:45:35.021Z,87.40
2018-12-17T05:48:06.903Z,87.60
2018-12-17T05:50:38.940Z,88.00
2018-12-17T05:53:10.860Z,87.90
2018-12-17T05:55:42.400Z,88.00
2018-12-17T05:58:15.300Z,88.00
2018-12-17T06:00:46.999Z,88.10
2018-12-17T06:03:20.559Z,88.10
2018-12-17T06:05:52.520Z,88.10
2018-12-17T06:08:24.000Z,88.60
2018-12-17T06:10:56.400Z,88.70
2018-12-17T06:13:28.287Z,88.50
2018-12-17T06:16:00.520Z,88.50
2018-12-17T06:18:32.360Z,88.80
2018-12-17T06:21:04.141Z,88.50
2018-12-17T06:23:35.920Z,88.70
2018-12-17T06:26:07.754Z,88.60
2018-12-17T06:28:40.020Z,88.40
2018-12-17T06:31:12.440Z,87.90
2018-12-17T06:33:44.720Z,88.40
2018-12-17T06:36:16.520Z,88.70
2018-12-17T06:38:48.862Z,89.10
2018-12-17T06:41:21.140Z,89.10
2018-12-17T06:43:54.219Z,89.20
2018-12-17T06:46:25.861Z,89.20
2018-12-17T06:48:58.000Z,89.50
2018-12-17T06:51:30.120Z,89.10
2018-12-17T06:54:02.220Z,89.20
2018-12-17T06:56:33.840Z,89.10
2018-12-17T06:59:05.760Z,88.60
2018-12-17T07:01:38.601Z,88.40
2018-12-17T07:04:09.686Z,88.40
2018-12-17T07:06:41.800Z,87.80
2018-12-17T07:09:14.260Z,87.30
2018-12-17T07:11:46.520Z,87.20
2018-12-17T07:14:18.221Z,87.30
2018-12-17T07:16:50.241Z,87.30
2018-12-17T07:19:22.467Z,86.80
2018-12-17T07:21:54.643Z,86.80
2018-12-17T07:24:27.027Z,86.80
2018-12-17T07:26:58.380Z,87.10
2018-12-17T07:29:31.060Z,87.20
2018-12-17T07:32:02.780Z,87.50
2018-12-17T07:34:35.940Z,87.30
2018-12-17T07:37:07.861Z,87.30
2018-12-17T07:39:40.120Z,86.80
2018-12-17T07:42:12.284Z,86.70
2018-12-17T07:44:43.760Z,86.30
2018-12-17T07:47:15.661Z,86.60
2018-12-17T07:49:47.981Z,87.00
2018-12-17T07:52:19.760Z,86.60
2018-12-17T07:54:51.699Z,86.80
2018-12-17T07:57:24.358Z,85.80
2018-12-17T07:59:56.838Z,85.80
2018-12-17T08:02:29.419Z,86.00
2018-12-17T08:05:01.166Z,86.00
2018-12-17T08:07:32.219Z,85.80
2018-12-17T08:10:03.817Z,85.80
2018-12-17T08:12:35.529Z,85.90
2018-12-17T08:15:07.246Z,85.70
2018-12-17T08:17:38.876Z,85.80
2018-12-17T08:20:10.962Z,85.50
2018-12-17T08:22:45.158Z,86.00
2018-12-17T08:25:17.631Z,86.20
2018-12-17T08:27:49.247Z,86.70
2018-12-17T08:30:22.048Z,86.90
2018-12-17T08:32:53.788Z,87.10
2018-12-17T08:35:25.614Z,87.40
2018-12-17T08:37:57.411Z,87.50
2018-12-17T08:40:30.011Z,87.40
2018-12-17T08:43:01.312Z,87.60
2018-12-17T08:45:32.455Z,88.00
2018-12-17T08:48:03.932Z,88.20
2018-12-17T08:50:35.226Z,88.30
2018-12-17T08:53:08.087Z,88.00
2018-12-17T08:55:39.705Z,88.10
2018-12-17T08:58:10.637Z,88.50
2018-12-17T09:00:41.948Z,88.20
2018-12-17T09:03:14.281Z,88.40
2018-12-17T09:05:46.400Z,88.40
2018-12-17T09:08:17.632Z,88.50
2018-12-17T09:10:48.671Z,88.80
2018-12-17T09:13:21.260Z,88.70
2018-12-17T09:15:52.296Z,88.60
2018-12-17T09:18:22.841Z,88.30
2018-12-17T09:20:53.858Z,88.00
2018-12-17T09:23:24.718Z,88.00
2018-12-17T09:25:56.201Z,87.90
2018-12-17T09:28:28.393Z,88.10
2018-12-17T09:30:59.974Z,88.10
2018-12-17T09:33:30.566Z,88.00
2018-12-17T09:36:02.427Z,87.80
2018-12-17T09:38:34.183Z,88.30
2018-12-17T09:41:05.785Z,88.60
2018-12-17T09:43:37.965Z,88.90
2018-12-17T09:46:10.183Z,89.00
2018-12-17T09:48:41.904Z,89.40
2018-12-17T09:51:19.222Z,89.90
2018-12-17T09:53:45.085Z,90.10
2018-12-17T09:56:21.614Z,89.40
2018-12-17T09:58:53.001Z,90.00
2018-12-17T10:01:24.609Z,89.80
2018-12-17T10:03:56.289Z,90.00
2018-12-17T10:06:26.678Z,90.00
2018-12-17T10:08:58.502Z,90.00
2018-12-17T10:11:30.042Z,89.40
2018-12-17T10:14:01.850Z,88.60
2018-12-17T10:16:33.439Z,89.00
2018-12-17T10:19:06.000Z,89.40
2018-12-17T10:21:37.440Z,89.60
2018-12-17T10:24:09.300Z,89.20
2018-12-17T10:26:41.156Z,88.80
2018-12-17T10:29:13.464Z,88.90
2018-12-17T10:31:45.558Z,89.50
2018-12-17T10:34:17.156Z,89.30
2018-12-17T10:36:48.314Z,88.90
2018-12-17T10:39:19.731Z,88.70
2018-12-17T10:41:50.562Z,87.90
2018-12-17T10:44:21.254Z,88.50
2018-12-17T10:46:52.315Z,88.00
2018-12-17T10:49:24.091Z,88.10
2018-12-17T10:51:55.085Z,88.00
2018-12-17T10:54:27.223Z,88.40
2018-12-17T10:56:57.999Z,88.30
2018-12-17T10:59:29.456Z,88.50
2018-12-17T11:02:03.871Z,89.00
2018-12-17T11:04:40.264Z,89.30
2018-12-17T11:07:11.392Z,88.50
2018-12-17T11:09:42.683Z,88.40
2018-12-17T11:12:15.086Z,88.60
2018-12-17T11:14:46.305Z,88.30
2018-12-17T11:17:17.329Z,87.80
2018-12-17T11:19:49.240Z,87.70
2018-12-17T11:22:20.321Z,87.40
2018-12-17T11:24:51.975Z,87.00
2018-12-17T11:27:23.812Z,86.80
2018-12-17T11:29:56.227Z,86.90
2018-12-17T11:32:27.939Z,87.40
2018-12-17T11:34:59.901Z,87.60
2018-12-17T11:37:31.069Z,88.00
2018-12-17T11:40:02.983Z,88.30
2018-12-17T11:42:33.577Z,88.10
2018-12-17T11:45:04.668Z,87.70
2018-12-17T11:47:35.390Z,87.00
2018-12-17T11:50:06.752Z,87.20
2018-12-17T11:52:38.151Z,86.80
2018-12-17T11:55:09.168Z,86.20
2018-12-17T11:58:13.028Z,86.10
2018-12-17T12:00:54.008Z,85.50
2018-12-17T12:03:24.850Z,85.80
2018-12-17T12:05:56.238Z,85.50
2018-12-17T12:08:27.069Z,85.70
2018-12-17T12:10:58.621Z,85.70
2018-12-17T12:13:29.493Z,85.60
2018-12-17T12:16:00.531Z,85.80
2018-12-17T12:18:32.397Z,86.30
2018-12-17T12:21:04.025Z,86.90
2018-12-17T12:23:35.095Z,86.50
2018-12-17T12:26:08.520Z,86.90
2018-12-17T12:28:39.029Z,87.50
2018-12-17T12:31:10.271Z,87.90
2018-12-17T12:33:41.297Z,88.40
2018-12-17T12:36:13.409Z,89.00
2018-12-17T12:38:45.108Z,88.80
2018-12-17T12:41:17.689Z,88.00
2018-12-17T12:43:49.488Z,87.80
2018-12-17T12:46:21.971Z,87.80
2018-12-17T12:48:54.239Z,87.50
2018-12-17T12:51:32.449Z,88.50
2018-12-17T12:53:59.466Z,88.40
2018-12-17T12:56:32.432Z,88.60
2018-12-17T12:59:04.415Z,88.90
2018-12-17T13:01:36.344Z,87.40
2018-12-17T13:04:09.111Z,86.90
2018-12-17T13:06:41.081Z,87.10
2018-12-17T13:09:12.820Z,86.90
2018-12-17T13:11:45.278Z,87.10
2018-12-17T13:14:18.242Z,87.70
2018-12-17T13:16:50.101Z,88.00
2018-12-17T13:19:22.221Z,87.90
2018-12-17T13:21:54.621Z,88.10
2018-12-17T13:24:26.321Z,87.90
2018-12-17T13:26:58.802Z,88.10
2018-12-17T13:29:30.222Z,88.30
2018-12-17T13:32:02.100Z,88.30
2018-12-17T13:34:33.321Z,88.00
2018-12-17T13:37:05.541Z,88.70
2018-12-17T13:39:37.721Z,89.00
2018-12-17T13:42:11.042Z,88.20
2018-12-17T13:44:42.602Z,88.30
2018-12-17T13:47:14.882Z,88.80
2018-12-17T13:49:47.201Z,88.20
2018-12-17T13:52:53.482Z,87.70
2018-12-17T13:55:25.561Z,87.80
2018-12-17T13:57:57.241Z,87.70
2018-12-17T14:00:28.761Z,87.70
2018-12-17T14:03:00.981Z,87.60
2018-12-17T14:05:32.422Z,87.30
2018-12-17T14:08:04.341Z,87.00
2018-12-17T14:10:40.423Z,86.30
2018-12-17T14:13:12.563Z,86.20
2018-12-17T14:15:48.828Z,86.20
2018-12-17T14:18:25.267Z,86.40
2018-12-17T14:21:01.507Z,86.50
2018-12-17T14:23:33.107Z,86.90
2018-12-17T14:26:05.187Z,87.10
2018-12-17T14:28:37.348Z,86.90
2018-12-17T14:31:08.609Z,87.50
2018-12-17T14:33:41.249Z,88.00
2018-12-17T14:36:14.607Z,88.20
2018-12-17T14:38:46.688Z,88.00
2018-12-17T14:41:17.967Z,87.80
2018-12-17T14:43:49.185Z,88.20
2018-12-17T14:46:22.066Z,88.60
2018-12-17T14:48:53.487Z,88.90
2018-12-17T14:51:26.107Z,89.40
2018-12-17T14:53:57.247Z,89.20
2018-12-17T14:56:28.748Z,89.50
2018-12-17T14:59:01.241Z,89.80
2018-12-17T15:01:35.730Z,90.10
2018-12-17T15:04:07.022Z,89.80
2018-12-17T15:06:38.496Z,90.00
2018-12-17T15:09:10.273Z,89.50
2018-12-17T15:11:42.634Z,89.40
2018-12-17T15:14:14.393Z,88.80
2018-12-17T15:16:46.234Z,89.00
2018-12-17T15:19:17.892Z,88.90
2018-12-17T15:21:50.199Z,90.00
2018-12-17T15:24:21.915Z,89.60
2018-12-17T15:26:54.054Z,89.30
2018-12-17T15:29:25.799Z,89.70
2018-12-17T15:31:57.900Z,90.00
2018-12-17T15:34:29.084Z,90.00
2018-12-17T15:37:00.961Z,89.60
2018-12-17T15:39:32.601Z,89.90
2018-12-17T15:42:05.899Z,90.00
2018-12-17T15:44:37.379Z,90.00
2018-12-17T15:47:10.080Z,90.10
2018-12-17T15:49:41.924Z,90.00
2018-12-17T15:52:12.780Z,90.20
2018-12-17T15:54:43.688Z,90.10
2018-12-17T15:57:14.487Z,90.00
2018-12-17T15:59:46.499Z,90.10
2018-12-17T16:02:17.442Z,90.70
2018-12-17T16:04:48.532Z,90.00
2018-12-17T16:07:19.851Z,90.10
2018-12-17T16:09:53.638Z,90.20
2018-12-17T16:12:24.728Z,90.20
2018-12-17T16:14:56.085Z,90.00
2018-12-17T16:17:27.867Z,89.60
2018-12-17T16:19:58.473Z,89.60
2018-12-17T16:22:30.181Z,89.20
2018-12-17T16:25:00.725Z,89.30
2018-12-17T16:27:32.641Z,89.50
2018-12-17T16:30:04.240Z,89.70
2018-12-17T16:32:36.450Z,90.00
2018-12-17T16:35:07.809Z,90.00
2018-12-17T16:37:39.183Z,90.00
2018-12-17T16:40:11.338Z,90.10
2018-12-17T16:42:45.163Z,90.20
2018-12-17T16:45:18.419Z,90.30
2018-12-17T16:47:50.216Z,90.30
2018-12-17T16:50:22.055Z,90.30
2018-12-17T16:52:54.235Z,90.30
2018-12-17T16:55:25.655Z,90.40
2018-12-17T16:57:57.115Z,90.30
2018-12-17T17:00:28.635Z,90.30
2018-12-17T17:03:01.357Z,90.30
2018-12-17T17:05:32.554Z,90.00
2018-12-17T17:08:04.275Z,89.70
2018-12-17T17:10:36.757Z,89.60
2018-12-17T17:13:09.063Z,89.60
2018-12-17T17:15:40.794Z,90.00
2018-12-17T17:18:12.575Z,90.00
2018-12-17T17:20:44.514Z,90.10
2018-12-17T17:23:16.717Z,90.20
2018-12-17T17:25:48.156Z,90.20
2018-12-17T17:28:20.056Z,90.20
2018-12-17T17:30:52.456Z,90.20
2018-12-17T17:33:24.260Z,90.20
2018-12-17T17:35:57.498Z,90.40
2018-12-17T17:38:28.956Z,90.50
2018-12-17T17:41:00.636Z,90.30
2018-12-17T17:43:32.374Z,90.30
2018-12-17T17:46:04.517Z,90.10
2018-12-17T17:48:36.374Z,90.30
2018-12-17T17:51:08.675Z,90.10
2018-12-17T17:53:40.483Z,90.10
2018-12-17T17:56:12.655Z,90.20
2018-12-17T17:58:43.838Z,90.40
2018-12-17T18:01:14.915Z,90.10
2018-12-17T18:03:46.662Z,90.00
2018-12-17T18:06:19.235Z,89.40
2018-12-17T18:08:51.603Z,88.90
2018-12-17T18:11:23.396Z,88.90
2018-12-17T18:13:55.186Z,88.70
2018-12-17T18:16:27.466Z,88.30
2018-12-17T18:19:00.348Z,88.40
2018-12-17T18:21:32.588Z,88.20
2018-12-17T18:24:04.045Z,88.10
2018-12-17T18:26:36.546Z,88.10
2018-12-17T18:29:08.206Z,88.30
2018-12-17T18:31:40.151Z,88.20
2018-12-17T18:34:11.466Z,88.10
2018-12-17T18:36:44.567Z,88.10
2018-12-17T18:39:16.444Z,88.00
2018-12-17T18:41:48.646Z,88.30
2018-12-17T18:44:20.784Z,87.20
2018-12-17T18:46:52.926Z,86.70
2018-12-17T18:49:24.466Z,86.70
2018-12-17T18:51:56.545Z,86.50
2018-12-17T18:54:28.129Z,86.40
2018-12-17T18:57:00.785Z,87.00
2018-12-17T18:59:33.046Z,87.40
2018-12-17T19:02:05.533Z,87.50
2018-12-17T19:04:37.765Z,87.70
2018-12-17T19:07:09.285Z,87.70
2018-12-17T19:09:41.646Z,87.80
2018-12-17T19:12:13.226Z,87.50
2018-12-17T19:14:45.005Z,87.50
2018-12-17T19:17:17.725Z,86.30
2018-12-17T19:19:50.044Z,86.80
2018-12-17T19:22:21.966Z,86.80
2018-12-17T19:24:53.985Z,86.60
2018-12-17T19:27:26.606Z,86.70
2018-12-17T19:29:59.345Z,87.00
2018-12-17T19:32:31.005Z,87.40
2018-12-17T19:35:03.525Z,87.50
2018-12-17T19:37:36.425Z,87.40
2018-12-17T19:40:09.265Z,87.50
2018-12-17T19:42:41.605Z,87.40
2018-12-17T19:45:13.246Z,87.50
2018-12-17T19:47:45.465Z,87.50
2018-12-17T19:50:17.426Z,87.50
2018-12-17T19:52:49.762Z,87.70
2018-12-17T19:55:22.085Z,87.70
2018-12-17T19:57:55.140Z,87.70
2018-12-17T20:00:27.566Z,87.70
2018-12-17T20:02:59.987Z,87.60
2018-12-17T20:05:32.784Z,87.60
2018-12-17T20:08:05.533Z,87.40
2018-12-17T20:10:37.086Z,87.30
2018-12-17T20:13:10.286Z,87.50
2018-12-17T20:15:41.986Z,87.50
2018-12-17T20:18:14.245Z,87.30
2018-12-17T20:20:46.086Z,87.00
2018-12-17T20:23:18.688Z,86.90
2018-12-17T20:25:50.625Z,86.80
2018-12-17T20:28:23.886Z,86.70
2018-12-17T20:30:55.706Z,87.30
2018-12-17T20:33:27.367Z,86.40
2018-12-17T20:35:59.047Z,86.40
2018-12-17T20:38:31.726Z,86.30
2018-12-17T20:41:03.152Z,86.50
2018-12-17T20:43:36.106Z,86.40
2018-12-17T20:46:07.145Z,86.50
2018-12-17T20:48:38.965Z,86.10
2018-12-17T20:51:10.165Z,86.00
2018-12-17T20:53:42.828Z,86.30
2018-12-17T20:56:14.607Z,85.90
2018-12-17T20:58:47.185Z,85.90
2018-12-17T21:01:19.305Z,85.70
2018-12-17T21:03:51.586Z,85.70
2018-12-17T21:06:23.948Z,85.70
2018-12-17T21:08:55.666Z,85.80
2018-12-17T21:11:27.546Z,85.70
2018-12-17T21:13:59.225Z,85.50
2018-12-17T21:16:30.905Z,85.70
2018-12-17T21:19:03.105Z,85.90
2018-12-17T21:21:35.006Z,86.10
2018-12-17T21:24:06.767Z,86.20
2018-12-17T21:26:38.205Z,86.00
2018-12-17T21:29:10.246Z,86.20
2018-12-17T21:31:43.705Z,86.10
2018-12-17T21:34:16.036Z,86.10
2018-12-17T21:36:48.346Z,86.10
2018-12-17T21:39:20.405Z,86.50
2018-12-17T21:41:52.186Z,86.50
2018-12-17T21:44:23.867Z,86.60
2018-12-17T21:46:55.665Z,86.40
2018-12-17T21:49:27.285Z,86.10
2018-12-17T21:51:59.325Z,86.00
2018-12-17T21:54:31.653Z,85.80
2018-12-17T21:57:05.386Z,85.90
2018-12-17T21:59:36.845Z,86.00
2018-12-17T22:02:09.364Z,86.10
2018-12-17T22:04:40.825Z,86.10
2018-12-17T22:07:12.785Z,86.30
2018-12-17T22:09:44.184Z,86.20
2018-12-17T22:12:15.565Z,85.80
2018-12-17T22:14:47.550Z,85.50
2018-12-17T22:17:19.964Z,85.50
2018-12-17T22:19:51.544Z,85.50
2018-12-17T22:22:23.628Z,85.40
2018-12-17T22:24:55.486Z,85.30
2018-12-17T22:27:27.484Z,85.30
2018-12-17T22:29:59.424Z,85.40
2018-12-17T22:32:31.444Z,85.30
2018-12-17T22:35:04.044Z,85.30
2018-12-17T22:37:35.885Z,85.10
2018-12-17T22:40:08.966Z,85.20
2018-12-17T22:42:40.245Z,85.50
2018-12-17T22:45:11.986Z,84.80
2018-12-17T22:47:44.645Z,84.60
2018-12-17T22:50:16.624Z,84.60
2018-12-17T22:52:48.764Z,84.70
2018-12-17T22:55:20.307Z,84.80
2018-12-17T22:57:52.864Z,85.10
2018-12-17T23:00:24.903Z,85.30
2018-12-17T23:02:57.142Z,85.70
2018-12-17T23:05:28.767Z,85.80
2018-12-17T23:08:01.244Z,85.80
2018-12-17T23:10:45.523Z,85.70
2018-12-17T23:13:28.084Z,85.70
2018-12-17T23:16:10.004Z,85.80
2018-12-17T23:18:39.623Z,85.80
2018-12-17T23:21:11.404Z,85.70
2018-12-17T23:23:43.364Z,85.70
2018-12-17T23:26:15.403Z,85.30
2018-12-17T23:28:47.383Z,85.00
2018-12-17T23:31:19.203Z,84.70
2018-12-17T23:33:50.983Z,84.50
2018-12-17T23:36:23.564Z,84.30
2018-12-17T23:38:55.484Z,84.20
2018-12-17T23:41:27.864Z,84.40
2018-12-17T23:43:59.823Z,84.40
2018-12-17T23:46:31.783Z,84.10
2018-12-17T23:49:03.924Z,83.80
2018-12-17T23:51:35.503Z,83.80
2018-12-17T23:54:07.243Z,83.80
2018-12-17T23:56:39.203Z,83.80
2018-12-17T23:59:11.923Z,83.90
